sensor_id;sensor_type;location;lat;lon;timestamp;temperature;humidity
7192;DHT22;3637;51.494;11.958;2024-03-02T00:02:04;6.90;99.90
7192;DHT22;3637;51.494;11.958;2024-03-02T00:05:13;6.80;99.90
7192;DHT22;3637;51.494;11.958;2024-03-02T00:08:37;6.80;99.90
7192;DHT22;3637;51.494;11.958;2024-03-02T00:11:43;6.80;99.90
7192;DHT22;3637;51.494;11.958;2024-03-02T00:14:46;6.90;99.90
7192;DHT22;3637;51.494;11.958;2024-03-02T00:18:06;7.50;99.90
7192;DHT22;3637;51.494;11.958;2024-03-02T00:21:09;6.90;99.90
7192;DHT22;3637;51.494;11.958;2024-03-02T00:24:34;7.00;99.90
7192;DHT22;3637;51.494;11.958;2024-03-02T00:31:06;7.00;99.90
7192;DHT22;3637;51.494;11.958;2024-03-02T00:34:14;7.60;99.90
7192;DHT22;3637;51.494;11.958;2024-03-02T00:37:17;7.00;99.90
7192;DHT22;3637;51.494;11.958;2024-03-02T00:40:23;7.10;99.90
7192;DHT22;3637;51.494;11.958;2024-03-02T00:43:57;7.00;99.90
7192;DHT22;3637;51.494;11.958;2024-03-02T00:47:02;7.00;99.90
7192;DHT22;3637;51.494;11.958;2024-03-02T00:50:26;7.30;99.90
7192;DHT22;3637;51.494;11.958;2024-03-02T00:53:31;7.00;99.90
7192;DHT22;3637;51.494;11.958;2024-03-02T00:56:34;7.40;99.90
7192;DHT22;3637;51.494;11.958;2024-03-02T00:59:37;7.00;99.90
7192;DHT22;3637;51.494;11.958;2024-03-02T01:02:39;7.30;99.90
7192;DHT22;3637;51.494;11.958;2024-03-02T01:06:04;7.40;99.90
7192;DHT22;3637;51.494;11.958;2024-03-02T01:09:29;7.00;99.90
7192;DHT22;3637;51.494;11.958;2024-03-02T01:12:33;6.90;99.90
7192;DHT22;3637;51.494;11.958;2024-03-02T01:15:38;6.90;99.90
7192;DHT22;3637;51.494;11.958;2024-03-02T01:18:40;6.90;99.90
7192;DHT22;3637;51.494;11.958;2024-03-02T01:21:45;6.60;99.90
7192;DHT22;3637;51.494;11.958;2024-03-02T01:24:47;6.70;99.90
7192;DHT22;3637;51.494;11.958;2024-03-02T01:27:50;6.90;99.90
7192;DHT22;3637;51.494;11.958;2024-03-02T01:30:53;6.90;99.90
7192;DHT22;3637;51.494;11.958;2024-03-02T01:33:55;6.90;99.90
7192;DHT22;3637;51.494;11.958;2024-03-02T01:37:01;6.60;99.90
7192;DHT22;3637;51.494;11.958;2024-03-02T01:40:05;6.80;99.90
7192;DHT22;3637;51.494;11.958;2024-03-02T01:43:28;6.80;99.90
7192;DHT22;3637;51.494;11.958;2024-03-02T01:46:29;6.80;99.90
7192;DHT22;3637;51.494;11.958;2024-03-02T01:49:32;7.20;99.90
7192;DHT22;3637;51.494;11.958;2024-03-02T01:52:38;6.70;99.90
7192;DHT22;3637;51.494;11.958;2024-03-02T01:55:40;6.80;99.90
7192;DHT22;3637;51.494;11.958;2024-03-02T01:58:45;6.80;99.90
7192;DHT22;3637;51.494;11.958;2024-03-02T02:01:47;6.80;99.90
7192;DHT22;3637;51.494;11.958;2024-03-02T02:04:49;6.80;99.90
7192;DHT22;3637;51.494;11.958;2024-03-02T02:07:54;6.90;99.90
7192;DHT22;3637;51.494;11.958;2024-03-02T02:10:56;6.80;99.90
7192;DHT22;3637;51.494;11.958;2024-03-02T02:14:15;7.70;99.90
7192;DHT22;3637;51.494;11.958;2024-03-02T02:17:19;6.90;99.90
7192;DHT22;3637;51.494;11.958;2024-03-02T02:20:23;7.00;99.90
7192;DHT22;3637;51.494;11.958;2024-03-02T02:23:41;7.10;99.90
7192;DHT22;3637;51.494;11.958;2024-03-02T02:27:04;6.90;99.90
7192;DHT22;3637;51.494;11.958;2024-03-02T02:30:07;6.90;99.90
7192;DHT22;3637;51.494;11.958;2024-03-02T02:33:11;6.90;99.90
7192;DHT22;3637;51.494;11.958;2024-03-02T02:36:13;7.20;99.90
7192;DHT22;3637;51.494;11.958;2024-03-02T02:39:39;6.80;99.90
7192;DHT22;3637;51.494;11.958;2024-03-02T02:42:45;6.90;99.90
7192;DHT22;3637;51.494;11.958;2024-03-02T02:45:48;7.00;99.90
7192;DHT22;3637;51.494;11.958;2024-03-02T02:48:49;6.90;99.90
7192;DHT22;3637;51.494;11.958;2024-03-02T02:52:06;6.80;99.90
7192;DHT22;3637;51.494;11.958;2024-03-02T02:55:12;6.90;99.90
7192;DHT22;3637;51.494;11.958;2024-03-02T02:58:36;7.60;99.90
7192;DHT22;3637;51.494;11.958;2024-03-02T03:01:57;6.90;99.90
7192;DHT22;3637;51.494;11.958;2024-03-02T03:05:00;7.40;99.90
7192;DHT22;3637;51.494;11.958;2024-03-02T03:08:04;6.90;99.90
7192;DHT22;3637;51.494;11.958;2024-03-02T03:11:22;6.80;99.90
7192;DHT22;3637;51.494;11.958;2024-03-02T03:14:44;6.90;99.90
7192;DHT22;3637;51.494;11.958;2024-03-02T03:17:46;6.80;99.90
7192;DHT22;3637;51.494;11.958;2024-03-02T03:20:48;7.00;99.90
7192;DHT22;3637;51.494;11.958;2024-03-02T03:24:11;7.10;99.90
7192;DHT22;3637;51.494;11.958;2024-03-02T03:27:30;6.90;99.90
7192;DHT22;3637;51.494;11.958;2024-03-02T03:30:33;6.80;99.90
7192;DHT22;3637;51.494;11.958;2024-03-02T03:33:35;6.50;99.90
7192;DHT22;3637;51.494;11.958;2024-03-02T03:36:38;6.30;99.90
7192;DHT22;3637;51.494;11.958;2024-03-02T03:39:40;6.90;99.90
7192;DHT22;3637;51.494;11.958;2024-03-02T03:42:44;6.80;99.90
7192;DHT22;3637;51.494;11.958;2024-03-02T03:45:49;6.80;99.90
7192;DHT22;3637;51.494;11.958;2024-03-02T03:48:51;6.60;99.90
7192;DHT22;3637;51.494;11.958;2024-03-02T03:51:53;6.40;99.90
7192;DHT22;3637;51.494;11.958;2024-03-02T03:54:55;6.60;99.90
7192;DHT22;3637;51.494;11.958;2024-03-02T03:57:58;6.30;99.90
7192;DHT22;3637;51.494;11.958;2024-03-02T04:01:01;6.30;99.90
7192;DHT22;3637;51.494;11.958;2024-03-02T04:04:03;6.30;99.90
7192;DHT22;3637;51.494;11.958;2024-03-02T04:07:05;7.00;99.90
7192;DHT22;3637;51.494;11.958;2024-03-02T04:10:11;6.40;99.90
7192;DHT22;3637;51.494;11.958;2024-03-02T04:13:31;6.50;99.90
7192;DHT22;3637;51.494;11.958;2024-03-02T04:16:33;6.40;99.90
7192;DHT22;3637;51.494;11.958;2024-03-02T04:19:40;6.50;99.90
7192;DHT22;3637;51.494;11.958;2024-03-02T04:22:42;6.30;99.90
7192;DHT22;3637;51.494;11.958;2024-03-02T04:25:44;6.50;99.90
7192;DHT22;3637;51.494;11.958;2024-03-02T04:28:52;6.50;99.90
7192;DHT22;3637;51.494;11.958;2024-03-02T04:31:54;6.60;99.90
7192;DHT22;3637;51.494;11.958;2024-03-02T04:34:59;6.40;99.90
7192;DHT22;3637;51.494;11.958;2024-03-02T04:38:01;6.60;99.90
7192;DHT22;3637;51.494;11.958;2024-03-02T04:41:06;6.50;99.90
7192;DHT22;3637;51.494;11.958;2024-03-02T04:44:11;6.60;99.90
7192;DHT22;3637;51.494;11.958;2024-03-02T04:47:14;6.60;99.90
7192;DHT22;3637;51.494;11.958;2024-03-02T04:50:17;7.50;99.90
7192;DHT22;3637;51.494;11.958;2024-03-02T04:53:19;6.60;99.90
7192;DHT22;3637;51.494;11.958;2024-03-02T04:56:22;6.70;99.90
7192;DHT22;3637;51.494;11.958;2024-03-02T04:59:49;6.70;99.90
7192;DHT22;3637;51.494;11.958;2024-03-02T05:02:51;6.70;99.90
7192;DHT22;3637;51.494;11.958;2024-03-02T05:05:57;6.70;99.90
7192;DHT22;3637;51.494;11.958;2024-03-02T05:09:00;6.90;99.90
7192;DHT22;3637;51.494;11.958;2024-03-02T05:12:02;7.10;99.90
7192;DHT22;3637;51.494;11.958;2024-03-02T05:15:40;6.70;99.90
7192;DHT22;3637;51.494;11.958;2024-03-02T05:18:45;6.80;99.90
7192;DHT22;3637;51.494;11.958;2024-03-02T05:21:50;6.80;99.90
7192;DHT22;3637;51.494;11.958;2024-03-02T05:24:53;6.60;99.90
7192;DHT22;3637;51.494;11.958;2024-03-02T05:27:56;7.70;99.90
7192;DHT22;3637;51.494;11.958;2024-03-02T05:31:15;6.50;99.90
7192;DHT22;3637;51.494;11.958;2024-03-02T05:34:19;7.60;99.90
7192;DHT22;3637;51.494;11.958;2024-03-02T05:40:29;6.70;99.90
7192;DHT22;3637;51.494;11.958;2024-03-02T05:43:48;6.70;99.90
7192;DHT22;3637;51.494;11.958;2024-03-02T05:46:52;6.90;99.90
7192;DHT22;3637;51.494;11.958;2024-03-02T05:53:12;6.90;99.90
7192;DHT22;3637;51.494;11.958;2024-03-02T05:56:14;6.70;99.90
7192;DHT22;3637;51.494;11.958;2024-03-02T05:59:17;6.70;99.90
7192;DHT22;3637;51.494;11.958;2024-03-02T06:02:23;6.70;99.90
7192;DHT22;3637;51.494;11.958;2024-03-02T06:05:25;7.00;99.90
7192;DHT22;3637;51.494;11.958;2024-03-02T06:08:28;6.60;99.90
7192;DHT22;3637;51.494;11.958;2024-03-02T06:11:33;6.80;99.90
7192;DHT22;3637;51.494;11.958;2024-03-02T06:14:36;7.00;99.90
7192;DHT22;3637;51.494;11.958;2024-03-02T06:17:41;6.90;99.90
7192;DHT22;3637;51.494;11.958;2024-03-02T06:20:45;6.80;99.90
7192;DHT22;3637;51.494;11.958;2024-03-02T06:23:48;7.10;99.90
7192;DHT22;3637;51.494;11.958;2024-03-02T06:26:52;7.10;99.90
7192;DHT22;3637;51.494;11.958;2024-03-02T06:29:54;7.20;99.90
7192;DHT22;3637;51.494;11.958;2024-03-02T06:32:59;7.30;99.90
7192;DHT22;3637;51.494;11.958;2024-03-02T06:36:05;7.40;99.90
7192;DHT22;3637;51.494;11.958;2024-03-02T06:39:09;7.40;99.90
7192;DHT22;3637;51.494;11.958;2024-03-02T06:42:13;7.50;99.90
7192;DHT22;3637;51.494;11.958;2024-03-02T06:45:19;7.60;99.90
7192;DHT22;3637;51.494;11.958;2024-03-02T06:48:37;7.70;99.90
7192;DHT22;3637;51.494;11.958;2024-03-02T06:51:55;8.00;99.90
7192;DHT22;3637;51.494;11.958;2024-03-02T06:54:58;8.00;99.90
7192;DHT22;3637;51.494;11.958;2024-03-02T06:58:01;8.40;99.90
7192;DHT22;3637;51.494;11.958;2024-03-02T07:01:04;8.20;99.90
7192;DHT22;3637;51.494;11.958;2024-03-02T07:04:07;8.30;99.90
7192;DHT22;3637;51.494;11.958;2024-03-02T07:07:10;8.40;99.90
7192;DHT22;3637;51.494;11.958;2024-03-02T07:10:13;8.40;99.90
7192;DHT22;3637;51.494;11.958;2024-03-02T07:13:19;8.50;99.90
7192;DHT22;3637;51.494;11.958;2024-03-02T07:16:30;8.80;99.90
7192;DHT22;3637;51.494;11.958;2024-03-02T07:19:53;8.60;99.90
7192;DHT22;3637;51.494;11.958;2024-03-02T07:22:55;8.50;99.90
7192;DHT22;3637;51.494;11.958;2024-03-02T07:25:57;8.70;99.90
7192;DHT22;3637;51.494;11.958;2024-03-02T07:29:01;8.70;99.90
7192;DHT22;3637;51.494;11.958;2024-03-02T07:32:30;8.70;99.90
7192;DHT22;3637;51.494;11.958;2024-03-02T07:35:34;9.00;99.90
7192;DHT22;3637;51.494;11.958;2024-03-02T07:38:39;9.00;99.90
7192;DHT22;3637;51.494;11.958;2024-03-02T07:41:41;9.10;99.90
7192;DHT22;3637;51.494;11.958;2024-03-02T07:44:46;8.80;99.90
7192;DHT22;3637;51.494;11.958;2024-03-02T07:47:48;8.90;99.90
7192;DHT22;3637;51.494;11.958;2024-03-02T07:51:09;8.90;99.90
7192;DHT22;3637;51.494;11.958;2024-03-02T07:54:11;9.00;99.90
7192;DHT22;3637;51.494;11.958;2024-03-02T07:57:15;9.20;99.90
7192;DHT22;3637;51.494;11.958;2024-03-02T08:00:17;9.00;99.90
7192;DHT22;3637;51.494;11.958;2024-03-02T08:03:35;8.90;99.90
7192;DHT22;3637;51.494;11.958;2024-03-02T08:06:40;9.00;99.90
7192;DHT22;3637;51.494;11.958;2024-03-02T08:09:44;9.10;99.90
7192;DHT22;3637;51.494;11.958;2024-03-02T08:12:56;9.20;99.90
7192;DHT22;3637;51.494;11.958;2024-03-02T08:16:28;9.90;99.90
7192;DHT22;3637;51.494;11.958;2024-03-02T08:20:10;9.40;99.90
7192;DHT22;3637;51.494;11.958;2024-03-02T08:27:06;9.60;99.90
7192;DHT22;3637;51.494;11.958;2024-03-02T08:30:22;9.90;99.90
7192;DHT22;3637;51.494;11.958;2024-03-02T08:33:28;9.80;99.90
7192;DHT22;3637;51.494;11.958;2024-03-02T08:36:35;10.20;99.90
7192;DHT22;3637;51.494;11.958;2024-03-02T08:39:38;10.00;99.90
7192;DHT22;3637;51.494;11.958;2024-03-02T08:42:46;10.00;99.90
7192;DHT22;3637;51.494;11.958;2024-03-02T08:45:49;10.00;99.90
7192;DHT22;3637;51.494;11.958;2024-03-02T08:49:14;10.30;99.90
7192;DHT22;3637;51.494;11.958;2024-03-02T08:52:16;10.00;99.90
7192;DHT22;3637;51.494;11.958;2024-03-02T08:55:20;10.30;99.90
7192;DHT22;3637;51.494;11.958;2024-03-02T08:58:23;10.60;99.90
7192;DHT22;3637;51.494;11.958;2024-03-02T09:01:28;10.30;99.90
7192;DHT22;3637;51.494;11.958;2024-03-02T09:04:36;10.20;99.90
7192;DHT22;3637;51.494;11.958;2024-03-02T09:07:39;10.50;99.90
7192;DHT22;3637;51.494;11.958;2024-03-02T09:11:00;10.50;99.90
7192;DHT22;3637;51.494;11.958;2024-03-02T09:14:06;10.60;99.90
7192;DHT22;3637;51.494;11.958;2024-03-02T09:17:32;10.60;99.90
7192;DHT22;3637;51.494;11.958;2024-03-02T09:20:48;11.10;99.90
7192;DHT22;3637;51.494;11.958;2024-03-02T09:23:54;10.50;99.90
7192;DHT22;3637;51.494;11.958;2024-03-02T09:27:13;10.70;99.90
7192;DHT22;3637;51.494;11.958;2024-03-02T09:30:16;10.60;99.90
7192;DHT22;3637;51.494;11.958;2024-03-02T09:33:26;11.00;99.90
7192;DHT22;3637;51.494;11.958;2024-03-02T09:36:59;11.30;99.90
7192;DHT22;3637;51.494;11.958;2024-03-02T09:40:08;11.60;99.90
7192;DHT22;3637;51.494;11.958;2024-03-02T09:43:13;11.70;99.90
7192;DHT22;3637;51.494;11.958;2024-03-02T09:46:15;12.20;99.90
7192;DHT22;3637;51.494;11.958;2024-03-02T09:49:20;12.10;99.90
7192;DHT22;3637;51.494;11.958;2024-03-02T09:55:31;12.10;99.90
7192;DHT22;3637;51.494;11.958;2024-03-02T09:58:36;12.30;99.90
7192;DHT22;3637;51.494;11.958;2024-03-02T10:02:05;12.30;99.90
7192;DHT22;3637;51.494;11.958;2024-03-02T10:05:08;12.40;99.90
7192;DHT22;3637;51.494;11.958;2024-03-02T10:08:14;12.40;99.90
7192;DHT22;3637;51.494;11.958;2024-03-02T10:11:32;12.10;99.90
7192;DHT22;3637;51.494;11.958;2024-03-02T10:14:38;11.40;99.90
7192;DHT22;3637;51.494;11.958;2024-03-02T10:17:41;12.30;99.90
7192;DHT22;3637;51.494;11.958;2024-03-02T10:20:44;12.20;99.90
7192;DHT22;3637;51.494;11.958;2024-03-02T10:23:52;11.90;99.90
7192;DHT22;3637;51.494;11.958;2024-03-02T10:27:16;11.70;99.90
7192;DHT22;3637;51.494;11.958;2024-03-02T10:30:24;12.20;99.90
7192;DHT22;3637;51.494;11.958;2024-03-02T10:33:26;12.10;99.90
7192;DHT22;3637;51.494;11.958;2024-03-02T10:36:30;12.10;99.90
7192;DHT22;3637;51.494;11.958;2024-03-02T10:39:34;12.20;99.90
7192;DHT22;3637;51.494;11.958;2024-03-02T10:42:38;12.40;99.90
7192;DHT22;3637;51.494;11.958;2024-03-02T10:45:47;12.60;99.90
7192;DHT22;3637;51.494;11.958;2024-03-02T10:49:09;13.40;99.90
7192;DHT22;3637;51.494;11.958;2024-03-02T10:52:12;12.60;99.90
7192;DHT22;3637;51.494;11.958;2024-03-02T10:55:17;12.90;99.90
7192;DHT22;3637;51.494;11.958;2024-03-02T10:58:19;12.90;99.90
7192;DHT22;3637;51.494;11.958;2024-03-02T11:01:22;12.90;99.90
7192;DHT22;3637;51.494;11.958;2024-03-02T11:04:26;13.00;99.90
7192;DHT22;3637;51.494;11.958;2024-03-02T11:07:29;13.30;99.90
7192;DHT22;3637;51.494;11.958;2024-03-02T11:10:49;13.00;99.90
7192;DHT22;3637;51.494;11.958;2024-03-02T11:14:34;13.10;99.90
7192;DHT22;3637;51.494;11.958;2024-03-02T11:17:38;13.20;99.90
7192;DHT22;3637;51.494;11.958;2024-03-02T11:20:55;13.40;99.90
7192;DHT22;3637;51.494;11.958;2024-03-02T11:28:09;13.60;99.90
7192;DHT22;3637;51.494;11.958;2024-03-02T11:31:15;13.60;99.90
7192;DHT22;3637;51.494;11.958;2024-03-02T11:34:36;13.60;99.90
7192;DHT22;3637;51.494;11.958;2024-03-02T11:37:43;13.80;99.90
7192;DHT22;3637;51.494;11.958;2024-03-02T11:40:53;13.70;99.90
7192;DHT22;3637;51.494;11.958;2024-03-02T11:43:57;13.70;99.90
7192;DHT22;3637;51.494;11.958;2024-03-02T11:47:21;13.90;99.90
7192;DHT22;3637;51.494;11.958;2024-03-02T11:50:40;13.80;99.90
7192;DHT22;3637;51.494;11.958;2024-03-02T11:53:42;14.30;99.90
7192;DHT22;3637;51.494;11.958;2024-03-02T11:56:48;14.40;99.90
7192;DHT22;3637;51.494;11.958;2024-03-02T11:59:51;14.70;99.90
7192;DHT22;3637;51.494;11.958;2024-03-02T12:03:08;15.20;99.90
7192;DHT22;3637;51.494;11.958;2024-03-02T12:06:32;15.00;99.90
7192;DHT22;3637;51.494;11.958;2024-03-02T12:09:35;15.00;99.90
7192;DHT22;3637;51.494;11.958;2024-03-02T12:12:38;15.10;99.90
7192;DHT22;3637;51.494;11.958;2024-03-02T12:15:42;15.00;99.90
7192;DHT22;3637;51.494;11.958;2024-03-02T12:18:45;15.30;99.90
7192;DHT22;3637;51.494;11.958;2024-03-02T12:21:48;15.40;99.90
7192;DHT22;3637;51.494;11.958;2024-03-02T12:25:12;15.30;99.90
7192;DHT22;3637;51.494;11.958;2024-03-02T12:28:26;15.30;99.90
7192;DHT22;3637;51.494;11.958;2024-03-02T12:31:37;15.20;99.90
7192;DHT22;3637;51.494;11.958;2024-03-02T12:34:40;16.60;99.90
7192;DHT22;3637;51.494;11.958;2024-03-02T12:37:43;17.60;99.90
7192;DHT22;3637;51.494;11.958;2024-03-02T12:40:50;17.80;99.90
7192;DHT22;3637;51.494;11.958;2024-03-02T12:44:21;15.80;99.90
7192;DHT22;3637;51.494;11.958;2024-03-02T12:47:24;15.80;99.90
7192;DHT22;3637;51.494;11.958;2024-03-02T12:50:47;15.70;99.90
7192;DHT22;3637;51.494;11.958;2024-03-02T12:54:05;16.30;99.90
7192;DHT22;3637;51.494;11.958;2024-03-02T12:57:08;16.00;99.90
7192;DHT22;3637;51.494;11.958;2024-03-02T13:00:14;16.00;99.90
7192;DHT22;3637;51.494;11.958;2024-03-02T13:03:40;15.90;99.90
7192;DHT22;3637;51.494;11.958;2024-03-02T13:06:48;15.60;99.90
7192;DHT22;3637;51.494;11.958;2024-03-02T13:09:50;15.60;99.90
7192;DHT22;3637;51.494;11.958;2024-03-02T13:13:12;15.40;99.90
7192;DHT22;3637;51.494;11.958;2024-03-02T13:16:18;15.70;99.90
7192;DHT22;3637;51.494;11.958;2024-03-02T13:19:26;15.50;99.90
7192;DHT22;3637;51.494;11.958;2024-03-02T13:22:38;15.80;99.90
7192;DHT22;3637;51.494;11.958;2024-03-02T13:25:41;15.80;99.90
7192;DHT22;3637;51.494;11.958;2024-03-02T13:28:45;15.90;99.90
7192;DHT22;3637;51.494;11.958;2024-03-02T13:31:50;16.20;99.90
7192;DHT22;3637;51.494;11.958;2024-03-02T13:34:58;15.90;99.90
7192;DHT22;3637;51.494;11.958;2024-03-02T13:38:03;15.70;99.90
7192;DHT22;3637;51.494;11.958;2024-03-02T13:41:06;15.40;99.90
7192;DHT22;3637;51.494;11.958;2024-03-02T13:44:08;15.30;99.90
7192;DHT22;3637;51.494;11.958;2024-03-02T13:47:10;15.40;99.90
7192;DHT22;3637;51.494;11.958;2024-03-02T13:50:16;15.60;99.90
7192;DHT22;3637;51.494;11.958;2024-03-02T13:53:18;16.10;99.90
7192;DHT22;3637;51.494;11.958;2024-03-02T13:56:32;15.90;99.90
7192;DHT22;3637;51.494;11.958;2024-03-02T14:02:58;15.50;99.90
7192;DHT22;3637;51.494;11.958;2024-03-02T14:06:07;15.70;99.90
7192;DHT22;3637;51.494;11.958;2024-03-02T14:09:09;15.30;99.90
7192;DHT22;3637;51.494;11.958;2024-03-02T14:12:11;15.40;99.90
7192;DHT22;3637;51.494;11.958;2024-03-02T14:15:14;15.50;99.90
7192;DHT22;3637;51.494;11.958;2024-03-02T14:18:20;15.50;99.90
7192;DHT22;3637;51.494;11.958;2024-03-02T14:21:55;15.40;99.90
7192;DHT22;3637;51.494;11.958;2024-03-02T14:24:59;15.50;99.90
7192;DHT22;3637;51.494;11.958;2024-03-02T14:28:01;15.50;99.90
7192;DHT22;3637;51.494;11.958;2024-03-02T14:31:08;15.50;99.90
7192;DHT22;3637;51.494;11.958;2024-03-02T14:34:11;15.30;99.90
7192;DHT22;3637;51.494;11.958;2024-03-02T14:37:20;15.40;99.90
7192;DHT22;3637;51.494;11.958;2024-03-02T14:40:26;15.30;99.90
7192;DHT22;3637;51.494;11.958;2024-03-02T14:43:51;15.10;99.90
7192;DHT22;3637;51.494;11.958;2024-03-02T14:46:54;15.10;99.90
7192;DHT22;3637;51.494;11.958;2024-03-02T14:49:58;14.90;99.90
7192;DHT22;3637;51.494;11.958;2024-03-02T14:53:02;15.40;99.90
7192;DHT22;3637;51.494;11.958;2024-03-02T14:56:05;15.20;99.90
7192;DHT22;3637;51.494;11.958;2024-03-02T14:59:08;15.20;99.90
7192;DHT22;3637;51.494;11.958;2024-03-02T15:02:11;15.10;99.90
7192;DHT22;3637;51.494;11.958;2024-03-02T15:05:20;15.30;99.90
7192;DHT22;3637;51.494;11.958;2024-03-02T15:08:24;15.20;99.90
7192;DHT22;3637;51.494;11.958;2024-03-02T15:11:30;15.20;99.90
7192;DHT22;3637;51.494;11.958;2024-03-02T15:14:32;15.30;99.90
7192;DHT22;3637;51.494;11.958;2024-03-02T15:17:36;15.10;99.90
7192;DHT22;3637;51.494;11.958;2024-03-02T15:23:58;14.80;99.90
7192;DHT22;3637;51.494;11.958;2024-03-02T15:27:24;15.00;99.90
7192;DHT22;3637;51.494;11.958;2024-03-02T15:30:49;15.60;99.90
7192;DHT22;3637;51.494;11.958;2024-03-02T15:34:11;15.00;99.90
7192;DHT22;3637;51.494;11.958;2024-03-02T15:37:17;15.00;99.90
7192;DHT22;3637;51.494;11.958;2024-03-02T15:40:25;15.10;99.90
7192;DHT22;3637;51.494;11.958;2024-03-02T15:43:47;15.20;99.90
7192;DHT22;3637;51.494;11.958;2024-03-02T15:46:52;14.90;99.90
7192;DHT22;3637;51.494;11.958;2024-03-02T15:49:54;14.70;99.90
7192;DHT22;3637;51.494;11.958;2024-03-02T15:52:59;14.60;99.90
7192;DHT22;3637;51.494;11.958;2024-03-02T15:56:22;14.70;99.90
7192;DHT22;3637;51.494;11.958;2024-03-02T15:59:24;14.70;99.90
7192;DHT22;3637;51.494;11.958;2024-03-02T16:02:35;14.40;99.90
7192;DHT22;3637;51.494;11.958;2024-03-02T16:05:51;14.30;99.90
7192;DHT22;3637;51.494;11.958;2024-03-02T16:08:54;14.20;99.90
7192;DHT22;3637;51.494;11.958;2024-03-02T16:11:59;14.10;99.90
7192;DHT22;3637;51.494;11.958;2024-03-02T16:15:01;14.20;99.90
7192;DHT22;3637;51.494;11.958;2024-03-02T16:18:04;14.00;99.90
7192;DHT22;3637;51.494;11.958;2024-03-02T16:21:08;13.80;99.90
7192;DHT22;3637;51.494;11.958;2024-03-02T16:24:31;13.70;99.90
7192;DHT22;3637;51.494;11.958;2024-03-02T16:27:35;14.00;99.90
7192;DHT22;3637;51.494;11.958;2024-03-02T16:30:39;13.80;99.90
7192;DHT22;3637;51.494;11.958;2024-03-02T16:33:42;13.70;99.90
7192;DHT22;3637;51.494;11.958;2024-03-02T16:36:49;12.90;99.90
7192;DHT22;3637;51.494;11.958;2024-03-02T16:39:52;13.10;99.90
7192;DHT22;3637;51.494;11.958;2024-03-02T16:43:05;13.00;99.90
7192;DHT22;3637;51.494;11.958;2024-03-02T16:46:09;12.90;99.90
7192;DHT22;3637;51.494;11.958;2024-03-02T16:49:13;12.90;99.90
7192;DHT22;3637;51.494;11.958;2024-03-02T16:52:16;12.70;99.90
7192;DHT22;3637;51.494;11.958;2024-03-02T16:55:23;12.70;99.90
7192;DHT22;3637;51.494;11.958;2024-03-02T16:58:27;12.50;99.90
7192;DHT22;3637;51.494;11.958;2024-03-02T17:01:31;12.80;99.90
7192;DHT22;3637;51.494;11.958;2024-03-02T17:04:35;10.80;99.90
7192;DHT22;3637;51.494;11.958;2024-03-02T17:07:39;12.10;99.90
7192;DHT22;3637;51.494;11.958;2024-03-02T17:11:01;12.00;99.90
7192;DHT22;3637;51.494;11.958;2024-03-02T17:14:06;12.00;99.90
7192;DHT22;3637;51.494;11.958;2024-03-02T17:17:09;11.60;99.90
7192;DHT22;3637;51.494;11.958;2024-03-02T17:20:15;11.80;99.90
7192;DHT22;3637;51.494;11.958;2024-03-02T17:23:20;11.60;99.90
7192;DHT22;3637;51.494;11.958;2024-03-02T17:26:25;11.50;99.90
7192;DHT22;3637;51.494;11.958;2024-03-02T17:29:45;11.70;99.90
7192;DHT22;3637;51.494;11.958;2024-03-02T17:32:50;11.40;99.90
7192;DHT22;3637;51.494;11.958;2024-03-02T17:35:52;11.60;99.90
7192;DHT22;3637;51.494;11.958;2024-03-02T17:38:55;11.40;99.90
7192;DHT22;3637;51.494;11.958;2024-03-02T17:42:08;11.20;99.90
7192;DHT22;3637;51.494;11.958;2024-03-02T17:45:23;11.30;99.90
7192;DHT22;3637;51.494;11.958;2024-03-02T17:48:49;11.00;99.90
7192;DHT22;3637;51.494;11.958;2024-03-02T17:51:59;10.90;99.90
7192;DHT22;3637;51.494;11.958;2024-03-02T17:55:06;11.00;99.90
7192;DHT22;3637;51.494;11.958;2024-03-02T17:58:13;10.90;99.90
7192;DHT22;3637;51.494;11.958;2024-03-02T18:01:28;10.60;99.90
7192;DHT22;3637;51.494;11.958;2024-03-02T18:04:30;10.90;99.90
7192;DHT22;3637;51.494;11.958;2024-03-02T18:07:34;10.90;99.90
7192;DHT22;3637;51.494;11.958;2024-03-02T18:10:41;10.60;99.90
7192;DHT22;3637;51.494;11.958;2024-03-02T18:14:08;10.60;99.90
7192;DHT22;3637;51.494;11.958;2024-03-02T18:17:28;10.70;99.90
7192;DHT22;3637;51.494;11.958;2024-03-02T18:20:31;10.40;99.90
7192;DHT22;3637;51.494;11.958;2024-03-02T18:23:44;10.60;99.90
7192;DHT22;3637;51.494;11.958;2024-03-02T18:26:51;10.30;99.90
7192;DHT22;3637;51.494;11.958;2024-03-02T18:29:59;10.40;99.90
7192;DHT22;3637;51.494;11.958;2024-03-02T18:33:53;11.10;99.90
7192;DHT22;3637;51.494;11.958;2024-03-02T18:37:00;11.20;99.90
7192;DHT22;3637;51.494;11.958;2024-03-02T18:40:03;10.30;99.90
7192;DHT22;3637;51.494;11.958;2024-03-02T18:43:12;10.20;99.90
7192;DHT22;3637;51.494;11.958;2024-03-02T18:46:17;10.30;99.90
7192;DHT22;3637;51.494;11.958;2024-03-02T18:49:43;10.30;99.90
7192;DHT22;3637;51.494;11.958;2024-03-02T18:52:52;10.10;99.90
7192;DHT22;3637;51.494;11.958;2024-03-02T18:55:57;10.30;99.90
7192;DHT22;3637;51.494;11.958;2024-03-02T18:59:15;10.80;99.90
7192;DHT22;3637;51.494;11.958;2024-03-02T19:02:21;10.00;99.90
7192;DHT22;3637;51.494;11.958;2024-03-02T19:05:28;9.60;99.90
7192;DHT22;3637;51.494;11.958;2024-03-02T19:08:32;9.90;99.90
7192;DHT22;3637;51.494;11.958;2024-03-02T19:11:37;10.30;99.90
7192;DHT22;3637;51.494;11.958;2024-03-02T19:14:43;10.00;99.90
7192;DHT22;3637;51.494;11.958;2024-03-02T19:17:49;9.70;99.90
7192;DHT22;3637;51.494;11.958;2024-03-02T19:21:18;9.70;99.90
7192;DHT22;3637;51.494;11.958;2024-03-02T19:24:23;9.70;99.90
7192;DHT22;3637;51.494;11.958;2024-03-02T19:27:47;9.70;99.90
7192;DHT22;3637;51.494;11.958;2024-03-02T19:34:58;9.60;99.90
7192;DHT22;3637;51.494;11.958;2024-03-02T19:38:25;9.50;99.90
7192;DHT22;3637;51.494;11.958;2024-03-02T19:45:36;9.40;99.90
7192;DHT22;3637;51.494;11.958;2024-03-02T19:48:48;9.40;99.90
7192;DHT22;3637;51.494;11.958;2024-03-02T19:51:56;9.30;99.90
7192;DHT22;3637;51.494;11.958;2024-03-02T19:55:14;9.50;99.90
7192;DHT22;3637;51.494;11.958;2024-03-02T19:58:47;9.90;99.90
7192;DHT22;3637;51.494;11.958;2024-03-02T20:01:55;9.50;99.90
7192;DHT22;3637;51.494;11.958;2024-03-02T20:05:32;8.70;99.90
7192;DHT22;3637;51.494;11.958;2024-03-02T20:08:34;9.20;99.90
7192;DHT22;3637;51.494;11.958;2024-03-02T20:11:49;9.20;99.90
7192;DHT22;3637;51.494;11.958;2024-03-02T20:14:51;9.20;99.90
7192;DHT22;3637;51.494;11.958;2024-03-02T20:18:04;9.30;99.90
7192;DHT22;3637;51.494;11.958;2024-03-02T20:21:06;9.10;99.90
7192;DHT22;3637;51.494;11.958;2024-03-02T20:24:11;9.10;99.90
7192;DHT22;3637;51.494;11.958;2024-03-02T20:27:27;9.10;99.90
7192;DHT22;3637;51.494;11.958;2024-03-02T20:30:46;9.20;99.90
7192;DHT22;3637;51.494;11.958;2024-03-02T20:33:57;9.00;99.90
7192;DHT22;3637;51.494;11.958;2024-03-02T20:37:02;9.90;99.90
7192;DHT22;3637;51.494;11.958;2024-03-02T20:40:11;10.00;99.90
7192;DHT22;3637;51.494;11.958;2024-03-02T20:49:58;8.90;99.90
7192;DHT22;3637;51.494;11.958;2024-03-02T20:53:04;8.80;99.90
7192;DHT22;3637;51.494;11.958;2024-03-02T20:56:22;8.80;99.90
7192;DHT22;3637;51.494;11.958;2024-03-02T20:59:45;8.70;99.90
7192;DHT22;3637;51.494;11.958;2024-03-02T21:02:48;8.90;99.90
7192;DHT22;3637;51.494;11.958;2024-03-02T21:05:54;9.10;99.90